createdAt,value
2018-05-06T00:02:27.768Z,102251.38
2018-05-06T00:05:33.948Z,102247.18
2018-05-06T00:08:40.037Z,102245.95
2018-05-06T00:11:46.217Z,102247.75
2018-05-06T00:14:52.107Z,102243.96
2018-05-06T00:17:58.029Z,102240.18
2018-05-06T00:21:04.098Z,102236.45
2018-05-06T00:24:09.088Z,102240.73
2018-05-06T00:27:16.065Z,102246.73
2018-05-06T00:30:22.470Z,102244.19
2018-05-06T00:33:27.743Z,102243.02
2018-05-06T00:36:33.023Z,102243.06
2018-05-06T00:39:39.137Z,102235.03
2018-05-06T00:42:45.091Z,102230.79
2018-05-06T00:45:50.354Z,102240.26
2018-05-06T00:48:55.624Z,102241.97
2018-05-06T00:52:00.886Z,102240.75
2018-05-06T00:55:06.596Z,102236.96
2018-05-06T00:58:12.454Z,102238.29
2018-05-06T01:01:19.541Z,102241.78
2018-05-06T01:04:25.333Z,102245.25
2018-05-06T01:07:30.534Z,102247.88
2018-05-06T01:10:37.468Z,102248.36
2018-05-06T01:13:43.265Z,102245.40
2018-05-06T01:16:49.147Z,102248.44
2018-05-06T01:19:54.410Z,102236.13
2018-05-06T01:22:59.666Z,102235.69
2018-05-06T01:26:05.626Z,102240.03
2018-05-06T01:29:11.493Z,102242.18
2018-05-06T01:32:18.408Z,102238.84
2018-05-06T01:35:23.673Z,102231.21
2018-05-06T01:38:30.727Z,102228.71
2018-05-06T01:41:37.470Z,102228.75
2018-05-06T01:44:43.776Z,102227.89
2018-05-06T01:47:49.680Z,102224.92
2018-05-06T01:50:54.881Z,102222.89
2018-05-06T01:54:00.521Z,102223.31
2018-05-06T01:57:05.381Z,102219.11
2018-05-06T02:00:11.521Z,102223.39
2018-05-06T02:03:18.548Z,102219.63
2018-05-06T02:06:25.078Z,102217.96
2018-05-06T02:09:31.716Z,102221.38
2018-05-06T02:12:37.561Z,102218.45
2018-05-06T02:15:43.656Z,102221.48
2018-05-06T02:18:49.758Z,102221.09
2018-05-06T02:21:57.067Z,102222.45
2018-05-06T02:25:02.931Z,102225.90
2018-05-06T02:28:09.941Z,102227.21
2018-05-06T02:31:16.154Z,102231.97
2018-05-06T02:34:21.107Z,102235.40
2018-05-06T02:37:27.009Z,102233.67
2018-05-06T02:40:32.937Z,102229.84
2018-05-06T02:43:39.530Z,102232.86
2018-05-06T02:46:45.642Z,102230.39
2018-05-06T02:49:51.832Z,102225.73
2018-05-06T02:52:57.644Z,102221.14
2018-05-06T02:56:03.748Z,102219.84
2018-05-06T02:59:09.379Z,102221.59
2018-05-06T03:02:16.148Z,102226.29
2018-05-06T03:05:21.343Z,102228.87
2018-05-06T03:08:27.152Z,102225.09
2018-05-06T03:11:32.846Z,102228.09
2018-05-06T03:14:38.520Z,102225.97
2018-05-06T03:17:43.628Z,102223.83
2018-05-06T03:20:49.236Z,102226.41
2018-05-06T03:23:55.149Z,102230.28
2018-05-06T03:27:00.361Z,102233.69
2018-05-06T03:30:05.224Z,102237.11
2018-05-06T03:33:10.844Z,102235.47
2018-05-06T03:36:16.651Z,102240.14
2018-05-06T03:45:30.584Z,102247.05
2018-05-06T03:48:36.675Z,102246.22
2018-05-06T03:51:44.393Z,102252.63
2018-05-06T03:54:50.001Z,102252.22
2018-05-06T03:58:06.152Z,102249.67
2018-05-06T04:01:11.420Z,102252.70
2018-05-06T04:04:16.332Z,102253.98
2018-05-06T04:07:22.041Z,102245.05
2018-05-06T04:10:27.959Z,102251.42
2018-05-06T04:13:33.183Z,102255.25
2018-05-06T04:16:39.365Z,102252.32
2018-05-06T04:19:44.219Z,102248.48
2018-05-06T04:22:50.316Z,102253.19
2018-05-06T04:25:55.932Z,102256.19
2018-05-06T04:29:02.972Z,102261.73
2018-05-06T04:32:09.081Z,102262.11
2018-05-06T04:35:15.203Z,102262.14
2018-05-06T04:38:20.847Z,102268.61
2018-05-06T04:41:26.045Z,102273.31
2018-05-06T04:44:31.439Z,102270.73
2018-05-06T04:47:36.633Z,102266.06
2018-05-06T04:50:42.737Z,102269.88
2018-05-06T04:53:48.751Z,102273.69
2018-05-06T04:56:54.085Z,102271.53
2018-05-06T04:59:59.278Z,102266.83
2018-05-06T05:03:05.097Z,102264.22
2018-05-06T05:06:10.725Z,102267.21
2018-05-06T05:09:16.813Z,102262.90
2018-05-06T05:12:22.420Z,102264.95
2018-05-06T05:15:28.632Z,102263.14
2018-05-06T05:18:34.510Z,102267.32
2018-05-06T05:21:39.699Z,102265.97
2018-05-06T05:24:45.028Z,102265.46
2018-05-06T05:27:50.768Z,102260.29
2018-05-06T05:30:56.886Z,102272.59
2018-05-06T05:34:03.088Z,102278.91
2018-05-06T05:37:08.900Z,102280.55
2018-05-06T05:40:14.101Z,102277.05
2018-05-06T05:43:19.284Z,102276.96
2018-05-06T05:46:25.591Z,102280.31
2018-05-06T05:49:31.917Z,102281.05
2018-05-06T05:52:37.104Z,102286.50
2018-05-06T05:55:42.770Z,102285.98
2018-05-06T05:58:49.612Z,102289.72
2018-05-06T06:01:55.503Z,102294.33
2018-05-06T06:05:01.597Z,102296.34
2018-05-06T06:08:08.632Z,102303.91
2018-05-06T06:11:14.431Z,102308.47
2018-05-06T06:14:19.629Z,102309.20
2018-05-06T06:17:25.944Z,102313.72
2018-05-06T06:20:30.901Z,102313.15
2018-05-06T06:23:37.022Z,102307.02
2018-05-06T06:26:42.213Z,102309.45
2018-05-06T06:29:47.962Z,102313.55
2018-05-06T06:32:53.412Z,102322.36
2018-05-06T06:35:58.770Z,102322.20
2018-05-06T06:39:03.575Z,102325.43
2018-05-06T06:42:09.532Z,102325.23
2018-05-06T06:45:15.640Z,102333.15
2018-05-06T06:48:21.748Z,102332.55
2018-05-06T06:51:26.943Z,102333.20
2018-05-06T06:54:32.553Z,102321.90
2018-05-06T06:57:40.321Z,102320.86
2018-05-06T07:00:47.079Z,102324.97
2018-05-06T07:03:53.203Z,102325.16
2018-05-06T07:06:59.179Z,102321.09
2018-05-06T07:10:04.376Z,102311.86
2018-05-06T07:13:10.486Z,102311.16
2018-05-06T07:16:15.696Z,102308.34
2018-05-06T07:19:21.361Z,102312.38
2018-05-06T07:22:27.553Z,102308.27
2018-05-06T07:25:32.957Z,102308.42
2018-05-06T07:28:39.840Z,102299.11
2018-05-06T07:31:45.864Z,102298.37
2018-05-06T07:34:51.972Z,102300.25
2018-05-06T07:37:57.596Z,102293.02
2018-05-06T07:41:02.796Z,102293.53
2018-05-06T07:44:08.541Z,102291.91
2018-05-06T07:47:14.852Z,102294.56
2018-05-06T07:50:20.527Z,102303.63
2018-05-06T07:53:27.554Z,102307.94
2018-05-06T07:56:33.156Z,102308.87
2018-05-06T07:59:39.272Z,102312.33
2018-05-06T08:02:45.561Z,102317.48
2018-05-06T08:05:51.369Z,102322.66
2018-05-06T08:08:56.567Z,102310.55
2018-05-06T08:12:02.777Z,102321.28
2018-05-06T08:15:08.604Z,102318.22
2018-05-06T08:18:13.896Z,102322.02
2018-05-06T08:21:20.225Z,102319.80
2018-05-06T08:24:26.536Z,102317.16
2018-05-06T08:27:32.640Z,102319.62
2018-05-06T08:30:37.873Z,102318.23
2018-05-06T08:33:43.061Z,102320.27
2018-05-06T08:36:48.294Z,102314.87
2018-05-06T08:39:53.510Z,102312.63
2018-05-06T08:42:59.832Z,102315.48
2018-05-06T08:46:05.441Z,102318.74
2018-05-06T08:49:11.459Z,102316.47
2018-05-06T08:52:16.654Z,102315.48
2018-05-06T08:55:22.424Z,102302.70
2018-05-06T08:58:27.399Z,102305.58
2018-05-06T09:01:32.608Z,102307.99
2018-05-06T09:04:39.020Z,102304.84
2018-05-06T09:07:44.659Z,102310.27
2018-05-06T09:10:50.847Z,102311.33
2018-05-06T09:13:56.965Z,102306.36
2018-05-06T09:17:02.208Z,102302.78
2018-05-06T09:20:07.415Z,102300.87
2018-05-06T09:23:12.609Z,102288.94
2018-05-06T09:26:17.813Z,102294.72
2018-05-06T09:29:23.012Z,102291.10
2018-05-06T09:32:29.138Z,102291.42
2018-05-06T09:35:35.148Z,102288.59
2018-05-06T09:38:40.357Z,102287.85
2018-05-06T09:41:45.560Z,102299.50
2018-05-06T09:44:50.768Z,102295.86
2018-05-06T09:47:57.379Z,102291.54
2018-05-06T09:51:03.298Z,102302.59
2018-05-06T09:54:10.152Z,102294.18
2018-05-06T09:57:16.009Z,102293.02
2018-05-06T10:00:22.108Z,102295.27
2018-05-06T10:03:27.310Z,102299.34
2018-05-06T10:06:33.412Z,102288.63
2018-05-06T10:09:38.386Z,102285.61
2018-05-06T10:12:43.600Z,102284.23
2018-05-06T10:15:49.295Z,102288.85
2018-05-06T10:18:55.250Z,102287.59
2018-05-06T10:22:00.429Z,102289.59
2018-05-06T10:25:05.292Z,102285.88
2018-05-06T10:28:10.985Z,102279.33
2018-05-06T10:31:18.110Z,102273.59
2018-05-06T10:34:25.096Z,102275.78
2018-05-06T10:37:31.220Z,102274.19
2018-05-06T10:40:36.428Z,102275.95
2018-05-06T10:43:41.646Z,102268.45
2018-05-06T10:46:47.771Z,102269.20
2018-05-06T10:49:53.714Z,102273.01
2018-05-06T10:53:00.019Z,102269.89
2018-05-06T10:56:05.803Z,102263.66
2018-05-06T10:59:11.412Z,102262.36
2018-05-06T11:02:17.961Z,102253.16
2018-05-06T11:05:24.481Z,102254.25
2018-05-06T11:08:30.389Z,102249.92
2018-05-06T11:11:35.594Z,102247.70
2018-05-06T11:14:41.716Z,102246.25
2018-05-06T11:17:47.618Z,102247.05
2018-05-06T11:20:54.572Z,102239.34
2018-05-06T11:24:00.724Z,102239.91
2018-05-06T11:27:06.704Z,102236.64
2018-05-06T11:30:12.644Z,102239.28
2018-05-06T11:33:17.896Z,102227.63
2018-05-06T11:36:23.983Z,102227.48
2018-05-06T11:39:30.101Z,102220.36
2018-05-06T11:42:35.924Z,102226.05
2018-05-06T11:45:42.044Z,102215.43
2018-05-06T11:48:48.152Z,102220.53
2018-05-06T11:51:53.363Z,102213.20
2018-05-06T11:54:58.568Z,102213.84
2018-05-06T11:58:03.780Z,102210.13
2018-05-06T12:01:09.931Z,102208.16
2018-05-06T12:04:16.052Z,102206.95
2018-05-06T12:07:21.999Z,102207.48
2018-05-06T12:10:29.128Z,102206.23
2018-05-06T12:13:36.168Z,102193.05
2018-05-06T12:16:43.188Z,102192.52
2018-05-06T12:19:49.316Z,102192.72
2018-05-06T12:22:55.211Z,102187.83
2018-05-06T12:26:00.400Z,102184.94
2018-05-06T12:29:05.798Z,102188.59
2018-05-06T12:32:11.244Z,102178.58
2018-05-06T12:35:16.481Z,102174.48
2018-05-06T12:38:22.596Z,102168.55
2018-05-06T12:41:27.580Z,102167.27
2018-05-06T12:44:32.448Z,102158.39
2018-05-06T12:47:38.436Z,102160.66
2018-05-06T12:50:44.240Z,102152.70
2018-05-06T12:53:50.434Z,102150.69
2018-05-06T12:56:55.647Z,102146.50
2018-05-06T13:00:00.852Z,102144.58
2018-05-06T13:03:06.468Z,102147.09
2018-05-06T13:06:12.595Z,102137.11
2018-05-06T13:09:18.204Z,102134.70
2018-05-06T13:12:23.414Z,102133.88
2018-05-06T13:15:28.608Z,102135.74
2018-05-06T13:18:33.812Z,102133.91
2018-05-06T13:21:40.121Z,102130.19
2018-05-06T13:24:46.220Z,102131.52
2018-05-06T13:27:51.433Z,102128.80
2018-05-06T13:30:56.644Z,102125.80
2018-05-06T13:34:01.869Z,102119.28
2018-05-06T13:37:07.099Z,102113.53
2018-05-06T13:40:12.081Z,102115.42
2018-05-06T13:43:17.479Z,102108.42
2018-05-06T13:46:23.092Z,102102.41
2018-05-06T13:49:29.009Z,102105.57
2018-05-06T13:52:35.170Z,102098.97
2018-05-06T13:55:41.076Z,102097.95
2018-05-06T13:58:46.415Z,102092.54
2018-05-06T14:01:52.529Z,102089.98
2018-05-06T14:04:58.719Z,102083.78
2018-05-06T14:08:04.439Z,102083.59
2018-05-06T14:11:09.636Z,102082.75
2018-05-06T14:14:14.871Z,102076.75
2018-05-06T14:17:20.084Z,102074.73
2018-05-06T14:20:25.058Z,102070.81
2018-05-06T14:23:30.462Z,102070.60
2018-05-06T14:26:36.557Z,102070.83
2018-05-06T14:29:42.402Z,102075.26
2018-05-06T14:32:47.268Z,102068.95
2018-05-06T14:35:52.504Z,102069.37
2018-05-06T14:38:57.709Z,102060.56
2018-05-06T14:42:02.916Z,102063.26
2018-05-06T14:45:08.126Z,102064.45
2018-05-06T14:48:15.376Z,102064.31
2018-05-06T14:51:21.525Z,102061.22
2018-05-06T14:54:26.720Z,102057.35
2018-05-06T14:57:31.967Z,102056.78
2018-05-06T15:00:38.083Z,102054.46
2018-05-06T15:03:43.367Z,102050.16
2018-05-06T15:06:48.485Z,102049.21
2018-05-06T15:09:53.688Z,102052.86
2018-05-06T15:12:59.800Z,102051.14
2018-05-06T15:16:04.861Z,102041.38
2018-05-06T15:19:10.512Z,102045.34
2018-05-06T15:22:15.612Z,102043.31
2018-05-06T15:25:21.223Z,102040.24
2018-05-06T15:28:26.431Z,102044.40
2018-05-06T15:31:32.647Z,102036.48
2018-05-06T15:34:38.193Z,102029.52
2018-05-06T15:37:44.304Z,102030.95
2018-05-06T15:40:50.103Z,102020.16
2018-05-06T15:43:55.312Z,102020.63
2018-05-06T15:47:00.541Z,102022.36
2018-05-06T15:50:05.517Z,102020.16
2018-05-06T15:53:10.928Z,102010.16
2018-05-06T15:56:17.052Z,102012.77
2018-05-06T15:59:22.268Z,102011.23
2018-05-06T16:02:58.492Z,102008.80
2018-05-06T16:06:04.345Z,101999.13
2018-05-06T16:09:09.545Z,101994.77
2018-05-06T16:12:14.752Z,101993.41
2018-05-06T16:15:21.545Z,101990.05
2018-05-06T16:18:27.669Z,101997.45
2018-05-06T16:21:34.763Z,101995.67
2018-05-06T16:24:40.589Z,101994.83
2018-05-06T16:27:46.713Z,101992.64
2018-05-06T16:30:52.538Z,101990.48
2018-05-06T16:33:57.742Z,101980.89
2018-05-06T16:37:04.183Z,101980.71
2018-05-06T16:40:09.789Z,101980.72
2018-05-06T16:43:15.894Z,101980.67
2018-05-06T16:46:21.100Z,101980.55
2018-05-06T16:49:28.168Z,101971.84
2018-05-06T16:52:35.172Z,101973.52
2018-05-06T16:55:41.360Z,101970.58
2018-05-06T16:58:46.941Z,101974.98
2018-05-06T17:01:53.989Z,101971.09
2018-05-06T17:05:01.092Z,101974.56
2018-05-06T17:08:07.027Z,101971.23
2018-05-06T17:11:12.233Z,101980.17
2018-05-06T17:14:17.429Z,101975.05
2018-05-06T17:17:23.530Z,101973.41
2018-05-06T17:20:29.677Z,101973.40
2018-05-06T17:23:34.930Z,101974.56
2018-05-06T17:26:39.799Z,101973.45
2018-05-06T17:29:45.412Z,101972.14
2018-05-06T17:32:51.329Z,101977.48
2018-05-06T17:35:58.509Z,101970.63
2018-05-06T17:39:03.558Z,101972.59
2018-05-06T17:42:09.268Z,101972.23
2018-05-06T17:45:14.992Z,101974.12
2018-05-06T17:48:20.043Z,101970.53
2018-05-06T17:51:26.169Z,101979.36
2018-05-06T17:54:32.269Z,101974.83
2018-05-06T17:57:38.016Z,101979.30
2018-05-06T18:00:43.240Z,101982.02
2018-05-06T18:03:48.441Z,101978.46
2018-05-06T18:06:53.362Z,101983.88
2018-05-06T18:10:00.009Z,101978.91
2018-05-06T18:13:06.127Z,101977.84
2018-05-06T18:16:11.372Z,101975.92
2018-05-06T18:19:16.584Z,101981.18
2018-05-06T18:22:22.700Z,101983.18
2018-05-06T18:25:29.556Z,101978.56
2018-05-06T18:28:35.766Z,101980.97
2018-05-06T18:31:41.681Z,101973.27
2018-05-06T18:34:47.596Z,101975.16
2018-05-06T18:37:53.496Z,101977.59
2018-05-06T18:40:59.594Z,101979.04
2018-05-06T18:44:05.515Z,101972.78
2018-05-06T18:47:11.625Z,101971.68
2018-05-06T18:50:18.385Z,101970.54
2018-05-06T18:53:24.025Z,101969.80
2018-05-06T18:56:29.229Z,101964.78
2018-05-06T18:59:34.436Z,101973.55
2018-05-06T19:02:39.673Z,101977.93
2018-05-06T19:05:45.076Z,101976.29
2018-05-06T19:08:50.910Z,101972.05
2018-05-06T19:11:57.089Z,101976.02
2018-05-06T19:15:03.193Z,101973.05
2018-05-06T19:18:10.288Z,101976.13
2018-05-06T19:21:16.424Z,101974.49
2018-05-06T19:24:22.080Z,101974.09
2018-05-06T19:27:27.285Z,101974.09
2018-05-06T19:30:32.488Z,101975.89
2018-05-06T19:33:38.613Z,101975.58
2018-05-06T19:36:44.932Z,101976.45
2018-05-06T19:39:50.552Z,101980.39
2018-05-06T19:42:56.736Z,101980.89
2018-05-06T19:46:02.760Z,101975.72
2018-05-06T19:49:07.956Z,101980.57
2018-05-06T19:52:14.128Z,101981.85
2018-05-06T19:55:20.486Z,101984.94
2018-05-06T19:58:26.973Z,101981.48
2018-05-06T20:01:32.587Z,101986.69
2018-05-06T20:04:37.491Z,101984.07
2018-05-06T20:07:44.124Z,101991.02
2018-05-06T20:10:49.761Z,101987.97
2018-05-06T20:13:56.924Z,101986.22
2018-05-06T20:17:03.672Z,101980.55
2018-05-06T20:20:10.709Z,101977.48
2018-05-06T20:23:16.679Z,101979.20
2018-05-06T20:26:21.278Z,101980.41
2018-05-06T20:29:26.924Z,101973.05
2018-05-06T20:32:32.161Z,101978.67
2018-05-06T20:35:38.116Z,101979.42
2018-05-06T20:38:43.711Z,101982.34
2018-05-06T20:41:49.139Z,101982.36
2018-05-06T20:44:54.349Z,101974.49
2018-05-06T20:47:59.552Z,101979.16
2018-05-06T20:51:04.474Z,101968.34
2018-05-06T20:54:09.684Z,101964.70
2018-05-06T20:57:15.964Z,101961.59
2018-05-06T21:00:21.292Z,101962.84
2018-05-06T21:03:26.283Z,101954.10
2018-05-06T21:06:32.612Z,101955.70
2018-05-06T21:09:38.433Z,101956.46
2018-05-06T21:12:44.309Z,101955.02
2018-05-06T21:15:50.148Z,101959.61
2018-05-06T21:18:55.354Z,101958.66
2018-05-06T21:22:01.552Z,101957.20
2018-05-06T21:25:08.064Z,101956.20
2018-05-06T21:28:12.758Z,101958.59
2018-05-06T21:31:18.056Z,101963.64
2018-05-06T21:34:23.121Z,101963.89
2018-05-06T21:37:28.300Z,101966.84
2018-05-06T21:40:33.735Z,101973.89
2018-05-06T21:43:38.916Z,101972.46
2018-05-06T21:46:44.731Z,101973.20
2018-05-06T21:49:51.145Z,101971.80
2018-05-06T21:52:56.725Z,101962.63
2018-05-06T21:56:03.033Z,101968.45
2018-05-06T21:59:08.936Z,101962.33
2018-05-06T22:02:16.201Z,101963.80
2018-05-06T22:05:21.393Z,101960.09
2018-05-06T22:08:27.229Z,101956.94
2018-05-06T22:11:32.876Z,101955.88
2018-05-06T22:14:38.484Z,101960.86
2018-05-06T22:17:43.692Z,101958.90
2018-05-06T22:20:49.128Z,101955.20
2018-05-06T22:23:54.971Z,101948.69
2018-05-06T22:27:01.304Z,101948.39
2018-05-06T22:30:06.936Z,101949.81
2018-05-06T22:33:12.140Z,101951.81
2018-05-06T22:36:17.964Z,101949.43
2018-05-06T22:39:23.324Z,101946.91
2018-05-06T22:42:29.084Z,101948.39
2018-05-06T22:45:34.303Z,101946.07
2018-05-06T22:48:40.089Z,101947.88
2018-05-06T22:51:45.515Z,101944.26
2018-05-06T22:54:50.908Z,101946.28
2018-05-06T22:57:56.122Z,101939.53
2018-05-06T23:01:03.135Z,101939.78
2018-05-06T23:04:10.223Z,101942.97
2018-05-06T23:07:16.256Z,101943.15
2018-05-06T23:10:23.108Z,101937.79
2018-05-06T23:13:29.143Z,101951.27
2018-05-06T23:16:34.984Z,101944.50
2018-05-06T23:19:41.112Z,101940.76
2018-05-06T23:22:46.312Z,101939.31
2018-05-06T23:25:52.832Z,101937.31
2018-05-06T23:28:59.357Z,101938.74
2018-05-06T23:32:05.492Z,101935.84
2018-05-06T23:35:10.705Z,101945.45
2018-05-06T23:38:16.641Z,101946.48
2018-05-06T23:41:22.332Z,101947.50
2018-05-06T23:44:30.370Z,101942.97
2018-05-06T23:47:36.256Z,101949.61
2018-05-06T23:50:41.468Z,101950.08
2018-05-06T23:53:47.796Z,101948.97
2018-05-06T23:56:53.905Z,101940.99
2018-05-06T23:59:59.132Z,101937.33
